createdAt,value
2022-10-11T00:02:43.669Z,6.34
2022-10-11T00:17:43.651Z,6.15
2022-10-11T00:32:43.586Z,6.07
2022-10-11T00:47:43.986Z,6.20
2022-10-11T01:02:43.616Z,5.79
2022-10-11T01:17:43.701Z,6.13
2022-10-11T01:32:44.041Z,5.86
2022-10-11T01:47:43.907Z,5.75
2022-10-11T02:02:43.957Z,5.53
2022-10-11T02:17:43.921Z,5.55
2022-10-11T02:32:43.830Z,5.34
2022-10-11T02:47:43.875Z,5.24
2022-10-11T03:02:44.083Z,4.92
2022-10-11T03:17:44.035Z,4.83
2022-10-11T03:32:44.074Z,4.88
2022-10-11T03:47:44.343Z,5.14
2022-10-11T04:02:44.053Z,4.97
2022-10-11T04:17:44.028Z,4.94
2022-10-11T04:32:44.363Z,4.80
2022-10-11T04:47:44.138Z,4.65
2022-10-11T05:02:44.145Z,4.58
2022-10-11T05:17:44.278Z,4.43
2022-10-11T05:32:44.370Z,4.36
2022-10-11T05:47:44.299Z,4.67
2022-10-11T06:02:44.265Z,4.65
2022-10-11T06:17:44.258Z,4.96
2022-10-11T06:32:44.435Z,5.40
2022-10-11T06:47:44.830Z,6.03
2022-10-11T07:02:44.391Z,7.52
2022-10-11T07:17:44.884Z,8.45
2022-10-11T07:32:44.559Z,9.19
2022-10-11T07:47:44.520Z,10.52
2022-10-11T08:02:44.482Z,11.38
2022-10-11T08:17:44.727Z,12.25
2022-10-11T08:32:45.497Z,12.68
2022-10-11T08:47:45.022Z,13.98
2022-10-11T09:03:06.914Z,14.26
2022-10-11T09:17:44.680Z,14.83
2022-10-11T09:32:44.741Z,14.22
2022-10-11T09:47:44.870Z,14.94
2022-10-11T10:02:45.039Z,14.85
2022-10-11T10:17:44.842Z,16.01
2022-10-11T10:32:48.340Z,16.13
2022-10-11T10:47:44.855Z,16.95
2022-10-11T11:02:45.028Z,14.85
2022-10-11T11:17:44.875Z,15.20
2022-10-11T11:32:45.842Z,14.73
2022-10-11T11:47:44.937Z,14.95
2022-10-11T12:02:45.149Z,16.80
2022-10-11T12:17:45.446Z,15.72
2022-10-11T12:32:45.097Z,15.27
2022-10-11T12:47:45.333Z,16.31
2022-10-11T13:02:45.441Z,17.32
2022-10-11T13:17:48.352Z,16.68
2022-10-11T13:32:45.195Z,16.31
2022-10-11T13:47:45.335Z,16.00
2022-10-11T14:02:45.363Z,16.29
2022-10-11T14:17:45.461Z,16.24
2022-10-11T14:32:45.447Z,16.23
2022-10-11T14:47:45.465Z,16.90
2022-10-11T15:02:45.531Z,15.83
2022-10-11T15:17:45.680Z,16.46
2022-10-11T15:32:45.800Z,17.10
2022-10-11T15:47:45.571Z,15.71
2022-10-11T16:02:45.737Z,15.29
2022-10-11T16:17:45.646Z,14.62
2022-10-11T16:32:45.755Z,13.95
2022-10-11T16:47:45.859Z,13.33
2022-10-11T17:02:45.853Z,12.82
2022-10-11T17:17:45.958Z,12.40
2022-10-11T17:32:46.071Z,12.19
2022-10-11T17:47:46.006Z,11.53
2022-10-11T18:02:46.373Z,10.94
2022-10-11T18:17:46.190Z,10.05
2022-10-11T18:32:46.349Z,9.41
2022-10-11T18:47:46.199Z,8.94
2022-10-11T19:02:46.305Z,8.52
2022-10-11T19:17:46.416Z,8.10
2022-10-11T19:32:46.618Z,7.56
2022-10-11T19:47:46.500Z,7.28
2022-10-11T20:02:46.336Z,7.13
2022-10-11T20:17:49.918Z,7.05
2022-10-11T20:32:46.614Z,6.82
2022-10-11T20:47:46.658Z,6.50
2022-10-11T21:02:46.748Z,6.34
2022-10-11T21:17:46.501Z,6.11
2022-10-11T21:32:46.632Z,6.13
2022-10-11T21:47:46.666Z,5.78
2022-10-11T22:02:46.598Z,5.80
2022-10-11T22:17:46.880Z,5.50
2022-10-11T22:32:46.654Z,5.52
2022-10-11T22:47:46.958Z,5.21
2022-10-11T23:02:46.846Z,5.17
2022-10-11T23:17:46.735Z,5.13
2022-10-11T23:32:47.056Z,5.00
2022-10-11T23:47:47.231Z,4.63
